createdAt,value
2018-10-01T00:02:24.519Z,21.37
2018-10-01T00:04:52.730Z,18.50
2018-10-01T00:07:20.957Z,20.70
2018-10-01T00:09:49.173Z,26.97
2018-10-01T00:12:17.424Z,19.37
2018-10-01T00:14:45.637Z,23.43
2018-10-01T00:17:13.844Z,19.07
2018-10-01T00:19:47.426Z,20.20
2018-10-01T00:22:21.093Z,23.50
2018-10-01T00:24:49.284Z,22.63
2018-10-01T00:27:17.466Z,23.20
2018-10-01T00:29:45.669Z,21.53
2018-10-01T00:32:13.856Z,19.93
2018-10-01T00:34:42.066Z,22.63
2018-10-01T00:37:10.308Z,16.43
2018-10-01T00:39:38.476Z,18.80
2018-10-01T00:42:06.709Z,20.27
2018-10-01T00:44:34.913Z,22.40
2018-10-01T00:47:03.061Z,20.80
2018-10-01T00:49:31.253Z,24.67
2018-10-01T00:51:59.466Z,20.17
2018-10-01T00:54:27.681Z,30.03
2018-10-01T00:56:55.893Z,23.33
2018-10-01T00:59:24.057Z,24.87
2018-10-01T01:01:52.265Z,18.67
2018-10-01T01:04:20.413Z,19.30
2018-10-01T01:06:48.612Z,19.33
2018-10-01T01:09:16.825Z,19.77
2018-10-01T01:11:44.974Z,17.87
2018-10-01T01:14:13.169Z,17.73
2018-10-01T01:16:41.368Z,22.13
2018-10-01T01:19:09.625Z,19.07
2018-10-01T01:21:37.813Z,18.53
2018-10-01T01:24:06.057Z,19.20
2018-10-01T01:26:34.258Z,24.57
2018-10-01T01:29:02.441Z,18.93
2018-10-01T01:31:30.682Z,23.97
2018-10-01T01:33:58.853Z,19.30
2018-10-01T01:36:27.145Z,18.70
2018-10-01T01:38:55.347Z,22.87
2018-10-01T01:41:23.505Z,21.27
2018-10-01T01:43:51.713Z,18.67
2018-10-01T01:46:19.889Z,17.20
2018-10-01T01:48:48.068Z,17.20
2018-10-01T01:51:16.253Z,22.00
2018-10-01T01:53:44.396Z,16.57
2018-10-01T01:56:12.583Z,17.23
2018-10-01T01:58:40.737Z,17.70
2018-10-01T02:01:08.973Z,19.03
2018-10-01T02:03:37.218Z,20.13
2018-10-01T02:06:05.479Z,19.37
2018-10-01T02:08:33.793Z,21.00
2018-10-01T02:11:01.956Z,20.60
2018-10-01T02:13:30.232Z,20.63
2018-10-01T02:15:58.421Z,21.53
2018-10-01T02:18:26.605Z,19.13
2018-10-01T02:20:54.800Z,20.93
2018-10-01T02:23:22.973Z,21.33
2018-10-01T02:25:51.169Z,21.80
2018-10-01T02:28:19.365Z,22.07
2018-10-01T02:30:47.537Z,19.30
2018-10-01T02:33:15.726Z,18.97
2018-10-01T02:35:43.912Z,20.73
2018-10-01T02:38:12.156Z,21.77
2018-10-01T02:40:40.380Z,23.90
2018-10-01T02:43:08.529Z,21.70
2018-10-01T02:45:36.749Z,23.67
2018-10-01T02:48:04.983Z,24.23
2018-10-01T02:50:33.172Z,26.33
2018-10-01T02:53:06.725Z,28.57
2018-10-01T02:55:34.923Z,27.57
2018-10-01T02:58:03.124Z,27.43
2018-10-01T03:00:31.312Z,31.87
2018-10-01T03:02:59.563Z,29.57
2018-10-01T03:05:27.745Z,30.57
2018-10-01T03:07:55.972Z,28.13
2018-10-01T03:10:24.157Z,29.17
2018-10-01T03:12:52.356Z,28.30
2018-10-01T03:15:20.549Z,32.53
2018-10-01T03:17:48.764Z,30.53
2018-10-01T03:20:16.979Z,30.63
2018-10-01T03:22:45.161Z,31.73
2018-10-01T03:25:13.336Z,32.30
2018-10-01T03:27:41.529Z,29.97
2018-10-01T03:30:09.693Z,37.10
2018-10-01T03:32:37.893Z,32.13
2018-10-01T03:35:06.121Z,30.27
2018-10-01T03:37:34.322Z,29.90
2018-10-01T03:40:02.623Z,30.00
2018-10-01T03:42:30.769Z,34.83
2018-10-01T03:44:58.974Z,31.20
2018-10-01T03:47:27.167Z,39.83
2018-10-01T03:49:55.357Z,33.10
2018-10-01T03:52:23.536Z,39.20
2018-10-01T03:54:51.693Z,39.60
2018-10-01T03:57:19.881Z,38.47
2018-10-01T03:59:48.082Z,37.90
2018-10-01T04:02:16.228Z,36.20
2018-10-01T04:04:44.441Z,33.43
2018-10-01T04:07:12.613Z,36.27
2018-10-01T04:09:40.805Z,38.70
2018-10-01T04:12:08.966Z,34.33
2018-10-01T04:14:37.197Z,33.57
2018-10-01T04:17:05.437Z,32.30
2018-10-01T04:19:33.581Z,32.83
2018-10-01T04:22:01.800Z,38.13
2018-10-01T04:24:29.949Z,31.23
2018-10-01T04:26:58.148Z,29.30
2018-10-01T04:29:26.352Z,30.50
2018-10-01T04:31:54.533Z,31.20
2018-10-01T04:34:22.735Z,34.00
2018-10-01T04:36:50.957Z,32.47
2018-10-01T04:39:19.140Z,33.17
2018-10-01T04:41:47.330Z,28.00
2018-10-01T04:44:15.491Z,23.60
2018-10-01T04:46:43.769Z,35.03
2018-10-01T04:49:11.944Z,27.60
2018-10-01T04:51:41.708Z,28.27
2018-10-01T04:54:09.946Z,26.40
2018-10-01T04:56:38.105Z,28.97
2018-10-01T04:59:06.753Z,27.63
2018-10-01T05:01:34.920Z,32.30
2018-10-01T05:04:03.125Z,28.17
2018-10-01T05:06:31.328Z,25.30
2018-10-01T05:08:59.494Z,23.67
2018-10-01T05:11:27.694Z,33.20
2018-10-01T05:13:55.905Z,25.00
2018-10-01T05:16:24.097Z,29.60
2018-10-01T05:18:52.285Z,30.87
2018-10-01T05:21:20.441Z,20.77
2018-10-01T05:23:48.616Z,26.50
2018-10-01T05:26:16.772Z,26.33
2018-10-01T05:28:44.997Z,28.00
2018-10-01T05:31:13.281Z,29.60
2018-10-01T05:33:41.425Z,30.93
2018-10-01T05:36:09.637Z,29.30
2018-10-01T05:38:37.825Z,28.87
2018-10-01T05:41:06.477Z,29.27
2018-10-01T05:43:34.628Z,26.20
2018-10-01T05:46:02.812Z,25.30
2018-10-01T05:48:30.960Z,30.33
2018-10-01T05:50:59.173Z,26.93
2018-10-01T05:53:27.404Z,35.23
2018-10-01T05:55:55.654Z,26.70
2018-10-01T05:58:23.851Z,27.87
2018-10-01T06:00:52.022Z,26.53
2018-10-01T06:03:20.280Z,28.80
2018-10-01T06:05:48.485Z,29.57
2018-10-01T06:08:16.645Z,29.57
2018-10-01T06:10:44.829Z,26.53
2018-10-01T06:13:12.984Z,25.17
2018-10-01T06:15:41.189Z,33.03
2018-10-01T06:18:09.400Z,24.80
2018-10-01T06:20:37.614Z,25.53
2018-10-01T06:23:05.933Z,26.87
2018-10-01T06:25:34.288Z,26.57
2018-10-01T06:28:02.576Z,28.60
2018-10-01T06:30:30.755Z,19.77
2018-10-01T06:32:58.964Z,26.70
2018-10-01T06:35:27.125Z,26.23
2018-10-01T06:37:55.431Z,25.50
2018-10-01T06:40:23.572Z,23.77
2018-10-01T06:42:51.786Z,27.60
2018-10-01T06:45:19.941Z,25.43
2018-10-01T06:47:48.136Z,30.27
2018-10-01T06:50:16.315Z,34.23
2018-10-01T06:52:44.474Z,38.03
2018-10-01T06:55:12.673Z,34.20
2018-10-01T06:57:40.841Z,28.03
2018-10-01T07:00:09.612Z,25.37
2018-10-01T07:02:37.789Z,33.33
2018-10-01T07:05:06.165Z,25.30
2018-10-01T07:07:34.367Z,22.20
2018-10-01T07:10:02.581Z,24.20
2018-10-01T07:12:30.771Z,24.87
2018-10-01T07:14:58.928Z,27.90
2018-10-01T07:17:27.242Z,26.67
2018-10-01T07:19:55.482Z,31.37
2018-10-01T07:22:23.780Z,25.17
2018-10-01T07:24:51.941Z,26.10
2018-10-01T07:27:20.196Z,26.80
2018-10-01T07:29:48.393Z,32.77
2018-10-01T07:32:16.632Z,26.57
2018-10-01T07:34:44.836Z,27.30
2018-10-01T07:37:13.086Z,19.43
2018-10-01T07:39:41.294Z,20.67
2018-10-01T07:42:09.457Z,27.20
2018-10-01T07:44:37.664Z,21.33
2018-10-01T07:47:05.863Z,24.33
2018-10-01T07:49:34.067Z,25.03
2018-10-01T07:52:02.261Z,26.17
2018-10-01T07:54:30.422Z,24.93
2018-10-01T07:56:58.691Z,19.05
2018-10-01T07:59:26.989Z,14.13
2018-10-01T08:01:55.174Z,12.20
2018-10-01T08:04:23.399Z,14.03
2018-10-01T08:06:51.581Z,10.93
2018-10-01T08:09:19.857Z,13.43
2018-10-01T08:11:48.085Z,10.80
2018-10-01T08:14:16.328Z,12.90
2018-10-01T08:16:44.549Z,12.82
2018-10-01T08:19:12.714Z,12.63
2018-10-01T08:21:40.925Z,15.17
2018-10-01T08:24:09.087Z,22.03
2018-10-01T08:26:37.322Z,20.13
2018-10-01T08:29:05.584Z,13.63
2018-10-01T08:31:33.857Z,15.90
2018-10-01T08:34:02.044Z,14.20
2018-10-01T08:36:30.205Z,12.93
2018-10-01T08:38:58.444Z,16.73
2018-10-01T08:41:26.725Z,15.50
2018-10-01T08:43:54.886Z,10.93
2018-10-01T08:46:23.108Z,14.30
2018-10-01T08:49:00.297Z,13.43
2018-10-01T08:51:47.525Z,11.77
2018-10-01T08:54:23.392Z,14.47
2018-10-01T08:56:51.609Z,14.00
2018-10-01T08:59:19.834Z,12.30
2018-10-01T09:01:48.025Z,14.37
2018-10-01T09:04:16.201Z,11.03
2018-10-01T09:06:44.406Z,14.17
2018-10-01T09:09:12.865Z,16.13
2018-10-01T09:11:41.031Z,15.80
2018-10-01T09:14:09.401Z,13.43
2018-10-01T09:16:37.605Z,17.07
2018-10-01T09:19:05.922Z,14.57
2018-10-01T09:21:34.258Z,14.03
2018-10-01T09:24:02.468Z,14.70
2018-10-01T09:26:30.720Z,21.73
2018-10-01T09:28:58.928Z,18.00
2018-10-01T09:31:27.367Z,22.23
2018-10-01T09:33:55.561Z,17.90
2018-10-01T09:36:23.916Z,28.30
2018-10-01T09:38:52.405Z,19.50
2018-10-01T09:41:20.580Z,20.33
2018-10-01T09:43:48.801Z,19.93
2018-10-01T09:46:17.066Z,19.47
2018-10-01T09:48:45.550Z,17.50
2018-10-01T09:51:13.753Z,20.07
2018-10-01T09:53:42.039Z,23.40
2018-10-01T09:56:10.325Z,16.80
2018-10-01T09:58:38.613Z,17.37
2018-10-01T10:01:14.999Z,17.07
2018-10-01T10:03:43.264Z,18.60
2018-10-01T10:06:11.473Z,18.17
2018-10-01T10:08:40.012Z,16.80
2018-10-01T10:11:08.369Z,18.63
2018-10-01T10:13:36.565Z,16.13
2018-10-01T10:16:04.893Z,13.10
2018-10-01T10:18:33.109Z,15.40
2018-10-01T10:21:01.358Z,13.97
2018-10-01T10:23:29.534Z,11.33
2018-10-01T10:25:57.793Z,16.53
2018-10-01T10:28:26.054Z,13.67
2018-10-01T10:30:54.338Z,17.07
2018-10-01T10:33:22.558Z,11.67
2018-10-01T10:35:50.737Z,11.10
2018-10-01T10:38:19.035Z,13.33
2018-10-01T10:40:47.238Z,13.85
2018-10-01T10:43:15.478Z,16.25
2018-10-01T10:45:43.686Z,17.37
2018-10-01T10:48:13.671Z,20.88
2018-10-01T10:50:42.046Z,17.67
2018-10-01T10:53:10.189Z,18.92
2018-10-01T10:55:38.442Z,13.35
2018-10-01T10:58:06.697Z,16.12
2018-10-01T11:00:35.878Z,16.67
2018-10-01T11:03:04.162Z,16.80
2018-10-01T11:05:32.334Z,12.97
2018-10-01T11:08:00.567Z,15.45
2018-10-01T11:10:28.789Z,13.65
2018-10-01T11:12:57.635Z,20.43
2018-10-01T11:15:25.989Z,14.75
2018-10-01T11:17:54.302Z,20.43
2018-10-01T11:20:22.683Z,18.32
2018-10-01T11:22:50.844Z,14.90
2018-10-01T11:25:19.097Z,19.37
2018-10-01T11:27:47.405Z,19.77
2018-10-01T11:30:15.505Z,18.20
2018-10-01T11:32:43.803Z,16.77
2018-10-01T11:35:12.974Z,20.80
2018-10-01T11:37:41.138Z,23.07
2018-10-01T11:40:09.405Z,19.03
2018-10-01T11:42:37.581Z,16.27
2018-10-01T11:45:06.251Z,20.37
2018-10-01T11:47:34.397Z,22.70
2018-10-01T11:50:02.669Z,16.60
2018-10-01T11:52:30.885Z,19.97
2018-10-01T11:54:59.065Z,17.70
2018-10-01T11:57:27.338Z,14.57
2018-10-01T11:59:55.615Z,14.53
2018-10-01T12:02:23.889Z,18.50
2018-10-01T12:04:52.144Z,14.30
2018-10-01T12:07:20.313Z,16.20
2018-10-01T12:09:48.638Z,18.70
2018-10-01T12:12:16.785Z,17.23
2018-10-01T12:14:45.019Z,17.87
2018-10-01T12:17:13.217Z,19.53
2018-10-01T12:19:41.422Z,17.20
2018-10-01T12:22:09.734Z,17.97
2018-10-01T12:24:37.878Z,16.97
2018-10-01T12:27:06.169Z,19.63
2018-10-01T12:29:34.407Z,17.40
2018-10-01T12:32:02.601Z,16.13
2018-10-01T12:34:30.873Z,22.07
2018-10-01T12:36:59.048Z,15.83
2018-10-01T12:39:27.488Z,18.07
2018-10-01T12:41:55.646Z,27.47
2018-10-01T12:44:23.857Z,16.20
2018-10-01T12:46:52.044Z,24.63
2018-10-01T12:49:20.205Z,16.97
2018-10-01T12:51:48.475Z,23.97
2018-10-01T12:54:16.628Z,26.37
2018-10-01T12:56:44.825Z,18.20
2018-10-01T12:59:13.004Z,16.83
2018-10-01T13:01:41.275Z,24.73
2018-10-01T13:04:09.537Z,19.60
2018-10-01T13:06:37.802Z,20.53
2018-10-01T13:09:09.213Z,22.60
2018-10-01T13:11:37.409Z,22.00
2018-10-01T13:14:05.676Z,25.30
2018-10-01T13:16:33.925Z,18.57
2018-10-01T13:19:02.158Z,20.03
2018-10-01T13:21:30.373Z,19.40
2018-10-01T13:23:58.591Z,20.00
2018-10-01T13:26:26.813Z,23.77
2018-10-01T13:28:55.050Z,22.00
2018-10-01T13:31:23.280Z,21.07
2018-10-01T13:33:51.508Z,22.93
2018-10-01T13:36:20.043Z,21.80
2018-10-01T13:38:48.223Z,20.13
2018-10-01T13:41:16.434Z,22.00
2018-10-01T13:43:44.685Z,26.83
2018-10-01T13:46:12.910Z,23.33
2018-10-01T13:48:41.192Z,21.67
2018-10-01T13:51:09.384Z,20.50
2018-10-01T13:53:37.597Z,21.50
2018-10-01T13:56:05.830Z,29.57
2018-10-01T13:58:34.070Z,23.63
2018-10-01T14:01:02.256Z,31.80
2018-10-01T14:03:30.487Z,23.53
2018-10-01T14:05:58.687Z,21.27
2018-10-01T14:08:26.864Z,25.83
2018-10-01T14:10:55.069Z,22.73
2018-10-01T14:13:23.402Z,20.90
2018-10-01T14:15:52.385Z,24.10
2018-10-01T14:18:20.705Z,22.80
2018-10-01T14:20:48.928Z,25.75
2018-10-01T14:23:17.141Z,24.50
2018-10-01T14:25:45.316Z,23.40
2018-10-01T14:28:13.552Z,25.10
2018-10-01T14:30:41.716Z,26.03
2018-10-01T14:33:09.918Z,33.83
2018-10-01T14:35:38.113Z,27.20
2018-10-01T14:38:06.313Z,25.13
2018-10-01T14:40:34.572Z,22.43
2018-10-01T14:43:02.796Z,21.53
2018-10-01T14:45:30.998Z,23.97
2018-10-01T14:47:59.223Z,34.43
2018-10-01T14:50:27.435Z,24.67
2018-10-01T14:52:55.677Z,24.80
2018-10-01T14:55:23.858Z,24.70
2018-10-01T14:57:52.073Z,25.53
2018-10-01T15:00:20.328Z,24.27
2018-10-01T15:02:48.508Z,31.90
2018-10-01T15:05:16.669Z,23.40
2018-10-01T15:07:44.886Z,27.57
2018-10-01T15:10:13.100Z,26.73
2018-10-01T15:12:41.466Z,23.70
2018-10-01T15:15:09.625Z,25.57
2018-10-01T15:17:37.788Z,25.83
2018-10-01T15:20:06.069Z,28.03
2018-10-01T15:22:34.245Z,21.30
2018-10-01T15:25:02.571Z,25.03
2018-10-01T15:27:30.874Z,28.53
2018-10-01T15:29:59.060Z,21.50
2018-10-01T15:32:27.305Z,20.63
2018-10-01T15:34:55.489Z,18.53
2018-10-01T15:37:23.717Z,18.30
2018-10-01T15:39:52.000Z,22.83
2018-10-01T15:42:20.198Z,19.83
2018-10-01T15:44:48.413Z,25.93
2018-10-01T15:47:16.609Z,20.63
2018-10-01T15:49:44.877Z,22.53
2018-10-01T15:52:13.162Z,24.80
2018-10-01T15:54:41.354Z,21.73
2018-10-01T15:57:09.580Z,24.15
2018-10-01T15:59:37.806Z,20.80
2018-10-01T16:02:06.049Z,23.00
2018-10-01T16:04:34.241Z,16.57
2018-10-01T16:07:02.453Z,21.33
2018-10-01T16:09:30.645Z,16.67
2018-10-01T16:11:58.866Z,20.33
2018-10-01T16:14:27.092Z,17.80
2018-10-01T16:16:55.269Z,18.10
2018-10-01T16:19:23.665Z,19.20
2018-10-01T16:21:51.865Z,15.60
2018-10-01T16:24:20.065Z,20.30
2018-10-01T16:26:48.284Z,19.75
2018-10-01T16:29:16.462Z,38.00
2018-10-01T16:31:44.693Z,20.53
2018-10-01T16:34:12.928Z,23.02
2018-10-01T16:36:41.168Z,17.35
2018-10-01T16:39:11.418Z,15.25
2018-10-01T16:41:39.642Z,12.50
2018-10-01T16:44:07.851Z,25.90
2018-10-01T16:46:36.126Z,16.80
2018-10-01T16:49:04.382Z,12.95
2018-10-01T16:51:32.617Z,14.85
2018-10-01T16:54:01.001Z,13.43
2018-10-01T16:56:29.248Z,18.20
2018-10-01T16:58:57.458Z,16.75
2018-10-01T17:01:26.056Z,16.82
2018-10-01T17:03:54.285Z,17.98
2018-10-01T17:06:28.677Z,17.23
2018-10-01T17:08:56.917Z,18.42
2018-10-01T17:11:25.137Z,23.12
2018-10-01T17:13:53.529Z,24.35
2018-10-01T17:16:21.793Z,17.62
2018-10-01T17:18:50.005Z,18.92
2018-10-01T17:21:18.166Z,18.57
2018-10-01T17:23:47.396Z,21.12
2018-10-01T17:26:16.367Z,20.43
2018-10-01T17:28:44.709Z,23.73
2018-10-01T17:31:14.222Z,16.70
2018-10-01T17:33:42.460Z,14.75
2018-10-01T17:36:10.669Z,12.95
2018-10-01T17:38:38.916Z,9.85
2018-10-01T17:41:07.389Z,8.83
2018-10-01T17:43:36.224Z,13.78
2018-10-01T17:46:04.612Z,13.95
2018-10-01T17:48:33.145Z,21.23
2018-10-01T17:51:01.333Z,33.28
2018-10-01T17:53:29.556Z,26.97
2018-10-01T17:55:57.941Z,15.15
2018-10-01T17:58:26.214Z,15.40
2018-10-01T18:00:54.455Z,15.07
2018-10-01T18:03:23.505Z,21.30
2018-10-01T18:05:51.776Z,18.87
2018-10-01T18:08:20.316Z,18.40
2018-10-01T18:10:49.742Z,17.52
2018-10-01T18:13:17.927Z,14.50
2018-10-01T18:15:48.909Z,27.87
2018-10-01T18:18:17.159Z,30.10
2018-10-01T18:20:46.021Z,14.35
2018-10-01T18:23:14.565Z,13.78
2018-10-01T18:25:43.762Z,15.93
2018-10-01T18:28:12.344Z,16.10
2018-10-01T18:30:41.921Z,11.97
2018-10-01T18:33:10.317Z,9.63
2018-10-01T18:35:39.018Z,9.90
2018-10-01T18:38:07.477Z,9.53
2018-10-01T18:40:36.653Z,15.63
2018-10-01T18:43:05.299Z,14.03
2018-10-01T18:45:33.615Z,10.40
2018-10-01T18:48:01.928Z,18.62
2018-10-01T18:50:30.114Z,16.42
2018-10-01T18:52:58.380Z,18.20
2018-10-01T18:55:26.594Z,16.57
2018-10-01T18:57:54.777Z,11.10
2018-10-01T19:00:23.071Z,16.62
2018-10-01T19:02:51.222Z,18.57
2018-10-01T19:05:19.453Z,26.03
2018-10-01T19:07:47.673Z,19.27
2018-10-01T19:10:15.885Z,30.35
2018-10-01T19:12:45.081Z,26.87
2018-10-01T19:15:13.386Z,18.75
2018-10-01T19:17:41.600Z,25.57
2018-10-01T19:20:09.816Z,14.10
2018-10-01T19:22:38.000Z,15.72
2018-10-01T19:25:06.361Z,12.80
2018-10-01T19:27:34.657Z,14.85
2018-10-01T19:30:03.990Z,16.27
2018-10-01T19:32:32.210Z,17.62
2018-10-01T19:35:00.585Z,15.08
2018-10-01T19:37:29.133Z,14.03
2018-10-01T19:39:57.368Z,16.27
2018-10-01T19:42:25.885Z,23.40
2018-10-01T19:44:54.130Z,23.18
2018-10-01T19:47:27.005Z,14.65
2018-10-01T19:49:55.233Z,17.90
2018-10-01T19:52:23.424Z,14.07
2018-10-01T19:54:52.348Z,13.20
2018-10-01T19:57:21.192Z,11.40
2018-10-01T19:59:49.442Z,10.23
2018-10-01T20:02:17.690Z,11.80
2018-10-01T20:04:45.951Z,9.88
2018-10-01T20:07:14.749Z,9.40
2018-10-01T20:09:43.637Z,9.05
2018-10-01T20:12:13.170Z,10.80
2018-10-01T20:14:42.153Z,13.93
2018-10-01T20:17:10.405Z,8.45
2018-10-01T20:19:38.655Z,6.80
2018-10-01T20:22:09.495Z,6.72
2018-10-01T20:24:38.406Z,7.05
2018-10-01T20:27:06.713Z,7.65
2018-10-01T20:29:35.025Z,11.53
2018-10-01T20:32:03.669Z,9.75
2018-10-01T20:34:32.229Z,15.20
2018-10-01T20:37:00.538Z,8.95
2018-10-01T20:39:28.793Z,11.15
2018-10-01T20:41:57.138Z,13.75
2018-10-01T20:44:25.943Z,19.70
2018-10-01T20:46:54.106Z,41.33
2018-10-01T20:49:22.272Z,23.92
2018-10-01T20:51:50.453Z,8.93
2018-10-01T20:54:18.725Z,8.25
2018-10-01T20:56:46.919Z,13.13
2018-10-01T20:59:21.974Z,9.48
2018-10-01T21:01:50.161Z,9.65
2018-10-01T21:04:18.322Z,11.25
2018-10-01T21:06:46.554Z,11.63
2018-10-01T21:09:14.753Z,11.03
2018-10-01T21:11:42.958Z,11.18
2018-10-01T21:14:11.178Z,9.83
2018-10-01T21:16:39.397Z,13.13
2018-10-01T21:19:08.098Z,12.95
2018-10-01T21:21:36.666Z,8.73
2018-10-01T21:24:05.393Z,10.68
2018-10-01T21:26:33.886Z,9.90
2018-10-01T21:29:02.399Z,12.05
2018-10-01T21:31:31.222Z,13.25
2018-10-01T21:33:59.787Z,8.80
2018-10-01T21:36:28.607Z,10.13
2018-10-01T21:38:57.225Z,7.10
2018-10-01T21:41:25.525Z,15.10
2018-10-01T21:43:53.699Z,8.00
2018-10-01T21:46:21.909Z,6.45
2018-10-01T21:48:50.086Z,9.30
2018-10-01T21:51:18.294Z,8.83
2018-10-01T21:53:46.505Z,7.75
2018-10-01T21:56:14.660Z,8.53
2018-10-01T21:58:42.880Z,12.63
2018-10-01T22:01:16.492Z,12.15
2018-10-01T22:03:44.724Z,6.45
2018-10-01T22:06:12.906Z,7.25
2018-10-01T22:08:41.097Z,6.92
2018-10-01T22:11:09.333Z,6.95
2018-10-01T22:13:37.565Z,7.83
2018-10-01T22:16:05.856Z,6.03
2018-10-01T22:18:34.034Z,6.95
2018-10-01T22:21:02.248Z,5.80
2018-10-01T22:23:30.413Z,13.03
2018-10-01T22:25:58.641Z,7.85
2018-10-01T22:28:26.841Z,5.95
2018-10-01T22:30:55.021Z,7.37
2018-10-01T22:33:23.225Z,9.65
2018-10-01T22:35:51.393Z,6.92
2018-10-01T22:38:19.584Z,7.33
2018-10-01T22:40:47.822Z,7.08
2018-10-01T22:43:15.990Z,7.50
2018-10-01T22:45:44.248Z,9.93
2018-10-01T22:48:12.410Z,7.12
2018-10-01T22:50:40.708Z,7.97
2018-10-01T22:53:08.897Z,7.90
2018-10-01T22:55:37.109Z,6.92
2018-10-01T22:58:05.370Z,6.85
2018-10-01T23:00:33.666Z,11.90
2018-10-01T23:03:01.860Z,7.72
2018-10-01T23:05:30.032Z,8.95
2018-10-01T23:07:58.224Z,9.33
2018-10-01T23:10:26.409Z,7.95
2018-10-01T23:12:54.592Z,9.20
2018-10-01T23:15:22.824Z,10.98
2018-10-01T23:17:50.976Z,7.17
2018-10-01T23:20:19.165Z,8.78
2018-10-01T23:22:47.356Z,12.90
2018-10-01T23:25:15.544Z,9.10
2018-10-01T23:27:43.762Z,9.23
2018-10-01T23:30:12.012Z,12.07
2018-10-01T23:32:40.209Z,8.95
2018-10-01T23:35:08.481Z,13.03
2018-10-01T23:37:36.669Z,9.05
2018-10-01T23:40:05.092Z,8.13
2018-10-01T23:42:33.268Z,10.03
2018-10-01T23:45:01.509Z,10.35
2018-10-01T23:47:29.852Z,10.08
2018-10-01T23:49:58.056Z,11.88
2018-10-01T23:52:26.380Z,13.03
2018-10-01T23:54:54.521Z,8.50
2018-10-01T23:57:22.720Z,11.73
2018-10-01T23:59:50.894Z,13.38
